Saturday, November 01, 2014
06:09 UTC
  |  Log In   |  Register Free
Airport Search:

La Porte Municipal Airport
(T41)

La Porte Municipal Airport Diagram
No Airport Diagram Available

FAA data valid effective September 18, 2014 - November 13, 2014 (unless otherwise noted).

 
 
 
 
 
 
 
 
 
 
 
 
 
 

Current Aviation Weather for La Porte Municipal Airport (T41)

METAR data is unavailable for T41. The nearest METAR location is at KEFD (6.2 nm SW from T41).

The most recent METAR observation for KEFD was updated at: 0531
METAR Summary (Translated METAR)
KEFD
010350Z 35008KT 10SM CLR 18/06 A3027
(6.2 nm SW from T41)
KHOU
010453Z 01008KT 10SM CLR 16/08 A3027 RMK AO2 SLP255 T01560078
(11.3 nm SW from T41)
TAF Summary (Translated TAF)
KEFD
0104/0210 01009KT 9999 SKC QNH3021INS BECMG 0113/0114 05012KT 9999 FEW180 QNH3032INS BECMG 0120/0121 06006KT 9999 SKC QNH3029INS TX18/0104Z TN11/0111Z
KHOU
(6.7 nm NW from KEFD)
010520Z 0106/0206 03007KT P6SM SKC FM011600 08008KT P6SM SKC FM020200 08004KT P6SM SKC
  Airport Weather Conditions for T41

Current weather conditions are
not available for T41


The nearest NOAA weather station
is at EFD, (6.2 nm SW from T41)
  
 Current Weather at EFD
64° F
Fair
North winds at 9.2 mph
EFD NOAA Radar

Pressure: 30.27 in
Humidity: 46%
Wind: North at 9.2 MPH (8 KT)
Dew Point: 42.8°F
Visibility: 10.00 mi


Airport Weather Forecast for T41

Translated METAR and TAF for KEFD
Translated METAR for KEFD (0604 UTC 01 November 2014)
found at http://aviationweather.gov/adds/metars/
 
METAR text: KEFD 010550Z 03005KT 10SM CLR 16/08 A3028
Conditions at: KEFD (HOUSTON/ELLINGTO, TX, US) observed 0550 UTC 01 November 2014
Temperature: 16.0°C (61°F)
Dewpoint: 8.0°C (46°F) [RH = 59%]
Pressure (altimeter): 30.28 inches Hg (1025.5 mb)
Winds: from the NNE (30 degrees) at 6 MPH (5 knots; 2.6 m/s)
Visibility: 10 or more miles (16+ km)
Ceiling: at least 12,000 feet AGL
Clouds: sky clear below 12,000 feet AGL
Weather: no significant weather observed at this time
Translated TAF for KEFD
Forecast for: KEFD (HOUSTON/ELLINGTO, TX, US)
TAF Text: TAF KEFD 0104/0210 01009KT 9999 SKC QNH3021INS
Forecast period: 0400 to 1300 UTC 01 November 2014
Forecast type: FROM: standard forecast or significant change
Winds: from the N (10 degrees) at 10 MPH (9 knots; 4.7 m/s)
Visibility: 6 or more miles (10+ km)
Clouds: clear skies
Weather: no significant weather forecast for this period
TAF Text: BECMG 0113/0114 05012KT 9999 FEW180 QNH3032INS
Forecast period: 1300 to 2000 UTC 01 November 2014
Forecast type: BECOMING: Conditions expected to become as follows by 1400 UTC 01 November 2014
Winds: from the NE (50 degrees) at 14 MPH (12 knots; 6.2 m/s)
Visibility: 6 or more miles (10+ km)
Clouds: few clouds at 18000 feet AGL
Weather: no significant weather forecast for this period
TAF Text: BECMG 0120/0121 06006KT 9999 SKC QNH3029INS TX18/0104Z TN11/0111Z
Forecast period: 2000 UTC 01 November 2014 to 1000 UTC 02 November 2014
Forecast type: BECOMING: Conditions expected to become as follows by 2100 UTC 01 November 2014
Winds: from the ENE (60 degrees) at 7 MPH (6 knots; 3.1 m/s)
Visibility: 6 or more miles (10+ km)
Clouds: clear skies
Weather: no significant weather forecast for this period

Find All Airport Services Find A Hotel Find A Rental Car Find A Golf Course Find A Restaurant $100 Hamburger



FBO's on the Field
FBO Company Facility Photos Services Transportation Aviation Fuel Prices: Prices include tax
Catering Weather Repair Courtesy Rental Type 100LL JetA JetA+ MOGAS 8087
 
Harvey & Rihn Aviation

This FBO has not yet been rated
FS:Independent
Last Updated: Oct-06
Login to update fuel prices
SS:
Contact Harvey & Rihn AviationMore FBO Information
 
Tri-Star Aviation

This FBO has not yet been rated
FS:Avfuel
Last Updated: Oct-10
Login to update fuel prices
SS:
Contact Tri-Star AviationMore FBO Information
 
Add another FBO Facility Photos Catering Weather Repair Courtesy Rental Type 100LL JetA JetA+ MOGAS 8087
Services Transportation Aviation Fuel Prices: Prices include tax


model-print
model-print
model-print
model-print